Time;durP1;ratioP1;P1;durP2;ratioP2;P2;SDS_P1;SDS_P2;PMS_P1;PMS_P2;Temp;Humidity;BMP_temperature;BMP_pressure;BME280_temperature;BME280_humidity;BME280_pressure;Samples;Min_cycle;Max_cycle;Signal;HPM_P1;HPM_P2
2023/07/21 00:00:53;;;;;;;5.03;2.83;;;16.50;99.90;;;;;;5073610;28;20193;-73
2023/07/21 00:03:20;;;;;;;3.67;2.90;;;16.30;99.90;;;;;;5073738;28;20221;-73
2023/07/21 00:05:47;;;;;;;3.45;3.15;;;16.10;99.90;;;;;;5073681;28;20258;-73
2023/07/21 00:08:14;;;;;;;3.70;3.00;;;15.90;99.90;;;;;;5073547;28;20557;-73
2023/07/21 00:10:41;;;;;;;5.15;3.25;;;15.80;99.90;;;;;;5073479;28;20203;-73
2023/07/21 00:13:07;;;;;;;4.28;3.17;;;15.80;99.90;;;;;;5073808;28;20204;-73
2023/07/21 00:15:34;;;;;;;3.40;3.10;;;16.00;99.90;;;;;;5073528;28;20228;-73
2023/07/21 00:18:03;;;;;;;4.72;3.35;;;16.10;99.90;;;;;;5073575;28;20596;-73
2023/07/21 00:20:30;;;;;;;4.30;3.23;;;16.00;99.90;;;;;;5073393;28;20197;-73
2023/07/21 00:22:57;;;;;;;3.70;3.00;;;15.70;99.90;;;;;;5073317;28;20586;-73
2023/07/21 00:25:24;;;;;;;3.40;3.00;;;15.60;99.90;;;;;;5073346;28;20231;-73
2023/07/21 00:27:51;;;;;;;5.57;2.90;;;15.70;99.90;;;;;;5073471;28;20200;-73
2023/07/21 00:30:18;;;;;;;5.23;2.90;;;15.60;99.90;;;;;;5073269;28;20206;-73
2023/07/21 00:32:44;;;;;;;3.30;3.00;;;15.60;99.90;;;;;;5072661;28;20193;-73
2023/07/21 00:35:13;;;;;;;5.33;3.30;;;15.50;99.90;;;;;;5073111;28;20221;-73
2023/07/21 00:37:41;;;;;;;3.67;3.10;;;15.40;99.90;;;;;;5073066;28;20278;-73
2023/07/21 00:40:10;;;;;;;4.27;3.50;;;15.30;99.90;;;;;;5073326;28;20235;-73
2023/07/21 00:42:37;;;;;;;5.13;2.93;;;15.50;99.90;;;;;;5073215;28;20192;-72
2023/07/21 00:45:04;;;;;;;3.73;3.07;;;15.50;99.90;;;;;;5073214;28;20197;-73
2023/07/21 00:47:32;;;;;;;3.87;3.13;;;15.50;99.90;;;;;;5072836;28;20201;-73
2023/07/21 00:50:00;;;;;;;6.40;3.53;;;15.30;99.90;;;;;;5072909;28;20330;-73
2023/07/21 00:52:28;;;;;;;7.53;3.00;;;15.20;99.90;;;;;;5072728;28;20526;-73
2023/07/21 00:54:55;;;;;;;4.57;3.10;;;15.10;99.90;;;;;;5072746;28;20754;-72
2023/07/21 00:57:23;;;;;;;4.63;3.30;;;15.00;99.90;;;;;;5072648;28;20225;-73
2023/07/21 00:59:50;;;;;;;4.10;3.63;;;15.00;99.90;;;;;;5072860;28;20208;-73
2023/07/21 01:02:18;;;;;;;4.87;3.40;;;14.90;99.90;;;;;;5072744;28;20212;-73
2023/07/21 01:04:45;;;;;;;3.83;3.33;;;14.90;99.90;;;;;;5072433;28;20275;-73
2023/07/21 01:07:11;;;;;;;3.87;3.47;;;14.90;99.90;;;;;;5072589;28;20582;-73
2023/07/21 01:09:40;;;;;;;4.37;3.80;;;14.80;99.90;;;;;;5072681;28;20201;-73
2023/07/21 01:12:08;;;;;;;4.10;3.60;;;15.00;99.90;;;;;;5072676;28;20224;-73
2023/07/21 01:14:36;;;;;;;3.90;3.50;;;15.10;99.90;;;;;;5072597;28;20193;-72
2023/07/21 01:17:03;;;;;;;4.77;3.53;;;15.00;99.90;;;;;;5072555;28;20197;-73
2023/07/21 01:19:31;;;;;;;4.43;3.10;;;14.80;99.90;;;;;;5072585;28;20201;-73
2023/07/21 01:22:04;;;;;;;5.07;3.47;;;14.70;99.90;;;;;;5072711;28;20200;-73
2023/07/21 01:24:40;;;;;;;5.87;4.03;;;14.70;99.90;;;;;;5072956;28;20201;-72
2023/07/21 01:27:11;;;;;;;4.30;3.90;;;14.60;99.90;;;;;;5072473;28;20199;-73
2023/07/21 01:29:41;;;;;;;4.60;3.80;;;14.50;99.90;;;;;;5072503;28;20653;-73
2023/07/21 01:32:09;;;;;;;5.60;4.00;;;14.50;99.90;;;;;;5072696;28;20243;-73
2023/07/21 01:34:37;;;;;;;5.20;4.20;;;14.50;99.90;;;;;;5072579;28;20201;-72
2023/07/21 01:37:06;;;;;;;5.93;4.37;;;14.40;99.90;;;;;;5074185;28;20672;-73
2023/07/21 01:39:34;;;;;;;4.47;3.70;;;14.40;99.90;;;;;;5076711;28;20556;-73
2023/07/21 01:42:00;;;;;;;4.00;3.60;;;14.40;99.90;;;;;;5077343;28;20604;-72
2023/07/21 01:44:29;;;;;;;4.60;4.07;;;14.40;99.90;;;;;;5076343;28;20250;-72
2023/07/21 01:46:55;;;;;;;5.77;3.90;;;14.40;99.90;;;;;;5076650;28;20247;-73
2023/07/21 01:49:22;;;;;;;4.73;4.27;;;14.30;99.90;;;;;;5076449;28;20208;-72
2023/07/21 01:51:51;;;;;;;5.30;4.07;;;14.30;99.90;;;;;;5076347;28;20197;-72
2023/07/21 01:54:24;;;;;;;6.70;4.10;;;14.30;99.90;;;;;;5076298;28;20193;-72
2023/07/21 01:56:58;;;;;;;6.63;4.80;;;14.30;99.90;;;;;;5075891;28;20298;-72
2023/07/21 01:59:26;;;;;;;5.37;4.87;;;14.20;99.90;;;;;;5076318;28;20254;-72
2023/07/21 02:01:55;;;;;;;9.13;5.03;;;14.20;99.90;;;;;;5076253;28;20207;-72
2023/07/21 02:04:22;;;;;;;9.27;4.90;;;14.10;99.90;;;;;;5076113;28;20546;-72
2023/07/21 02:06:48;;;;;;;8.10;4.57;;;14.10;99.90;;;;;;5075904;28;20568;-72
2023/07/21 02:09:15;;;;;;;5.97;4.50;;;14.00;99.90;;;;;;5075914;28;20209;-72
2023/07/21 02:11:42;;;;;;;7.90;4.43;;;14.00;99.90;;;;;;5075627;28;20201;-72
2023/07/21 02:14:09;;;;;;;4.60;4.20;;;14.10;99.90;;;;;;5075936;28;20270;-72
2023/07/21 02:16:37;;;;;;;7.97;4.77;;;14.10;99.90;;;;;;5075555;28;20708;-72
2023/07/21 02:19:06;;;;;;;7.17;4.30;;;14.10;99.90;;;;;;5075771;28;20562;-72
2023/07/21 02:21:33;;;;;;;5.37;4.40;;;14.20;99.90;;;;;;5075652;28;20653;-72
2023/07/21 02:24:00;;;;;;;5.60;4.07;;;14.20;99.90;;;;;;5075565;28;20197;-72
2023/07/21 02:26:27;;;;;;;4.40;3.90;;;14.20;99.90;;;;;;5075723;28;20204;-72
2023/07/21 02:28:53;;;;;;;5.40;4.20;;;14.20;99.90;;;;;;5075671;28;20616;-72
2023/07/21 02:31:21;;;;;;;7.20;4.20;;;14.20;99.90;;;;;;5075515;28;20201;-72
2023/07/21 02:33:48;;;;;;;4.40;4.00;;;14.20;99.90;;;;;;5075375;28;20201;-72
2023/07/21 02:36:16;;;;;;;6.13;4.03;;;14.20;99.90;;;;;;5075289;28;20588;-72
2023/07/21 02:38:42;;;;;;;5.73;3.53;;;14.30;99.90;;;;;;5075304;28;20743;-72
2023/07/21 02:41:09;;;;;;;6.27;3.93;;;14.30;99.90;;;;;;5075512;28;20204;-72
2023/07/21 02:43:36;;;;;;;5.90;3.90;;;14.30;99.90;;;;;;5075422;28;20197;-72
2023/07/21 02:46:04;;;;;;;5.67;3.83;;;14.50;99.90;;;;;;5075336;28;20197;-72
2023/07/21 02:48:33;;;;;;;4.93;3.90;;;14.50;99.90;;;;;;5073724;28;20198;-72
2023/07/21 02:51:00;;;;;;;18.77;3.83;;;14.40;99.90;;;;;;5075042;28;20603;-73
2023/07/21 02:53:28;;;;;;;5.17;3.97;;;14.20;99.90;;;;;;5075083;28;20203;-73
2023/07/21 02:55:55;;;;;;;7.77;4.30;;;14.10;99.90;;;;;;5074855;28;20623;-72
2023/07/21 02:58:26;;;;;;;5.27;3.90;;;14.00;99.90;;;;;;5075072;28;20193;-72
2023/07/21 03:00:54;;;;;;;5.77;4.30;;;14.00;99.90;;;;;;5074955;28;20193;-73
2023/07/21 03:03:23;;;;;;;5.47;3.87;;;14.00;99.90;;;;;;5074812;28;20743;-72
2023/07/21 03:05:49;;;;;;;5.30;3.90;;;14.00;99.90;;;;;;5074883;28;20204;-72
2023/07/21 03:08:19;;;;;;;5.07;4.10;;;14.00;99.90;;;;;;5075137;28;20200;-72
2023/07/21 03:10:47;;;;;;;5.17;4.33;;;14.10;99.90;;;;;;5074937;28;20204;-72
2023/07/21 03:13:14;;;;;;;4.37;3.93;;;14.10;99.90;;;;;;5074762;28;20197;-72
2023/07/21 03:15:40;;;;;;;5.23;4.17;;;14.00;99.90;;;;;;5074554;28;20684;-72
2023/07/21 03:18:08;;;;;;;6.93;4.50;;;14.00;99.90;;;;;;5074498;28;20208;-72
2023/07/21 03:20:34;;;;;;;8.03;4.77;;;14.00;99.90;;;;;;5074862;28;20232;-72
2023/07/21 03:23:01;;;;;;;6.57;4.70;;;14.10;99.90;;;;;;5074740;28;20201;-72
2023/07/21 03:25:28;;;;;;;8.57;5.10;;;14.20;99.90;;;;;;5074603;28;20201;-72
2023/07/21 03:27:56;;;;;;;7.57;5.27;;;14.20;99.90;;;;;;5074607;28;20553;-72
2023/07/21 03:30:23;;;;;;;8.37;5.17;;;14.10;99.90;;;;;;5074410;28;20193;-72
2023/07/21 03:32:49;;;;;;;8.40;4.83;;;14.10;99.90;;;;;;5074227;28;20632;-72
2023/07/21 03:35:16;;;;;;;7.50;5.17;;;14.10;99.90;;;;;;5074378;28;20200;-73
2023/07/21 03:37:43;;;;;;;6.27;5.57;;;14.10;99.90;;;;;;5074137;28;20200;-72
2023/07/21 03:40:10;;;;;;;6.43;5.03;;;14.20;99.90;;;;;;5074326;28;20230;-73
2023/07/21 03:42:37;;;;;;;5.73;5.03;;;14.10;99.90;;;;;;5074196;28;20207;-73
2023/07/21 03:45:06;;;;;;;6.70;4.80;;;14.00;99.90;;;;;;5074110;28;20250;-72
2023/07/21 03:47:33;;;;;;;5.97;4.90;;;13.90;99.90;;;;;;5073981;28;20262;-72
2023/07/21 03:50:00;;;;;;;8.07;4.63;;;14.00;99.90;;;;;;5074102;28;20201;-73
2023/07/21 03:52:27;;;;;;;7.20;4.53;;;13.90;99.90;;;;;;5073894;28;20250;-72
2023/07/21 03:54:54;;;;;;;5.43;4.33;;;13.90;99.90;;;;;;5073986;28;20283;-73
2023/07/21 03:57:20;;;;;;;5.03;4.53;;;13.90;99.90;;;;;;5073604;28;20240;-72
2023/07/21 03:59:47;;;;;;;5.10;4.60;;;13.90;99.90;;;;;;5073327;28;20561;-73
2023/07/21 04:02:17;;;;;;;7.13;5.57;;;14.10;99.90;;;;;;5074093;28;20205;-72
2023/07/21 04:04:45;;;;;;;8.97;5.37;;;14.20;99.90;;;;;;5073749;28;20197;-73
2023/07/21 04:07:12;;;;;;;7.33;4.77;;;14.10;99.90;;;;;;5073704;28;20201;-73
2023/07/21 04:09:39;;;;;;;11.97;5.23;;;14.20;99.90;;;;;;5073776;28;20287;-73
2023/07/21 04:12:06;;;;;;;6.17;4.97;;;14.20;99.90;;;;;;5073540;28;20201;-73
2023/07/21 04:14:33;;;;;;;5.13;4.63;;;14.40;99.90;;;;;;5073576;28;20201;-73
2023/07/21 04:16:59;;;;;;;10.47;4.67;;;14.60;99.90;;;;;;5073538;28;20286;-72
2023/07/21 04:19:27;;;;;;;4.67;4.17;;;14.70;99.90;;;;;;5073749;28;20593;-73
2023/07/21 04:21:54;;;;;;;5.53;4.20;;;14.70;99.90;;;;;;5073425;28;20238;-73
2023/07/21 04:24:21;;;;;;;5.17;4.40;;;14.80;99.90;;;;;;5073258;28;20594;-72
2023/07/21 04:26:47;;;;;;;5.07;4.57;;;14.70;99.90;;;;;;5073211;28;20197;-72
2023/07/21 04:29:14;;;;;;;6.73;4.97;;;14.60;99.90;;;;;;5073231;28;20204;-72
2023/07/21 04:31:41;;;;;;;4.87;4.37;;;14.60;99.90;;;;;;5073410;28;20193;-73
2023/07/21 04:34:07;;;;;;;5.90;4.50;;;14.60;99.90;;;;;;5073335;28;20201;-73
2023/07/21 04:36:36;;;;;;;6.23;4.60;;;14.70;99.90;;;;;;5073125;28;20274;-72
2023/07/21 04:39:02;;;;;;;6.43;4.73;;;14.70;99.90;;;;;;5073230;28;20201;-72
2023/07/21 04:41:29;;;;;;;7.60;4.60;;;14.70;99.90;;;;;;5072812;28;20193;-72
2023/07/21 04:43:56;;;;;;;4.50;4.10;;;14.80;99.90;;;;;;5073134;28;20246;-73
2023/07/21 04:46:22;;;;;;;4.93;4.43;;;14.70;99.90;;;;;;5073035;28;20618;-73
2023/07/21 04:48:49;;;;;;;5.13;3.87;;;14.80;99.90;;;;;;5072891;28;20599;-72
2023/07/21 04:51:15;;;;;;;5.10;4.60;;;14.90;99.90;;;;;;5072972;28;20197;-72
2023/07/21 04:53:43;;;;;;;7.13;4.60;;;15.00;99.90;;;;;;5072978;28;20266;-72
2023/07/21 04:56:13;;;;;;;5.53;4.20;;;15.10;99.90;;;;;;5072483;28;20268;-72
2023/07/21 04:58:39;;;;;;;5.45;4.60;;;15.40;99.90;;;;;;5073066;28;20205;-73
2023/07/21 05:01:06;;;;;;;4.57;4.10;;;15.50;99.90;;;;;;5073845;28;20196;-73
2023/07/21 05:03:33;;;;;;;4.65;3.85;;;15.60;99.90;;;;;;5073553;28;20209;-72
2023/07/21 05:05:59;;;;;;;8.77;4.10;;;15.80;99.90;;;;;;5072944;28;20255;-72
2023/07/21 05:08:26;;;;;;;7.45;4.13;;;15.90;99.90;;;;;;5092674;28;20192;-72
2023/07/21 05:10:55;;;;;;;6.40;4.00;;;16.00;99.90;;;;;;5091892;28;20204;-72
2023/07/21 05:13:22;;;;;;;4.43;3.80;;;16.20;99.90;;;;;;5092688;28;20203;-73
2023/07/21 05:15:49;;;;;;;4.57;4.07;;;16.30;99.90;;;;;;5092668;28;20307;-72
2023/07/21 05:18:15;;;;;;;5.05;4.35;;;16.50;99.90;;;;;;5092635;28;20663;-72
2023/07/21 05:20:42;;;;;;;6.13;4.20;;;16.60;99.90;;;;;;5092469;28;20369;-72
2023/07/21 05:23:10;;;;;;;6.97;4.00;;;16.70;99.90;;;;;;5092470;28;20204;-73
2023/07/21 05:25:36;;;;;;;8.82;3.88;;;16.90;99.90;;;;;;5092701;28;20200;-73
2023/07/21 05:28:04;;;;;;;5.95;4.05;;;17.00;99.90;;;;;;5092318;28;20664;-73
2023/07/21 05:30:31;;;;;;;6.22;4.22;;;17.10;99.90;;;;;;5092459;28;20586;-73
2023/07/21 05:32:58;;;;;;;7.45;4.30;;;17.20;99.90;;;;;;5092379;28;20298;-73
2023/07/21 05:35:26;;;;;;;4.70;4.05;;;17.30;99.90;;;;;;5092377;28;20196;-74
2023/07/21 05:37:54;;;;;;;7.45;4.80;;;17.50;99.90;;;;;;5092336;28;20228;-74
2023/07/21 05:40:20;;;;;;;8.52;6.13;;;17.70;99.90;;;;;;5092522;28;20222;-73
2023/07/21 05:42:47;;;;;;;9.50;5.03;;;17.80;99.90;;;;;;5092360;28;20709;-73
2023/07/21 05:45:16;;;;;;;11.68;5.43;;;18.00;99.90;;;;;;5092470;28;20196;-73
2023/07/21 05:47:42;;;;;;;11.20;4.30;;;18.10;99.90;;;;;;5092520;28;20257;-74
2023/07/21 05:50:09;;;;;;;6.60;4.80;;;18.10;99.90;;;;;;5092390;28;20196;-74
2023/07/21 05:52:36;;;;;;;6.72;5.00;;;18.20;99.90;;;;;;5092462;28;20200;-74
2023/07/21 05:55:03;;;;;;;12.00;5.03;;;18.40;99.90;;;;;;5092245;28;20204;-74
2023/07/21 05:57:30;;;;;;;7.53;5.40;;;18.60;99.90;;;;;;5092001;28;20234;-74
2023/07/21 05:59:57;;;;;;;9.10;5.35;;;18.80;99.90;;;;;;5092116;28;20643;-74
2023/07/21 06:02:25;;;;;;;8.70;4.90;;;18.90;99.90;;;;;;5091959;28;20660;-74
2023/07/21 06:04:56;;;;;;;6.95;4.18;;;18.70;99.90;;;;;;5092060;28;20201;-75
2023/07/21 06:07:24;;;;;;;8.30;4.88;;;18.60;99.90;;;;;;5092084;28;20211;-75
2023/07/21 06:09:50;;;;;;;9.30;4.65;;;18.50;99.90;;;;;;5092150;28;20203;-74
2023/07/21 06:12:18;;;;;;;10.02;5.18;;;18.60;99.90;;;;;;5091946;28;20716;-75
2023/07/21 06:14:45;;;;;;;12.35;5.28;;;18.70;99.90;;;;;;5092056;28;20200;-75
2023/07/21 06:17:11;;;;;;;12.32;5.28;;;18.80;99.90;;;;;;5091728;28;20285;-74
2023/07/21 06:19:39;;;;;;;11.63;5.35;;;19.00;99.90;;;;;;5092184;28;20250;-74
2023/07/21 06:22:06;;;;;;;10.60;5.03;;;19.20;99.90;;;;;;5092539;28;20196;-74
2023/07/21 06:24:33;;;;;;;6.38;4.25;;;19.60;99.90;;;;;;5095659;28;20740;-74
2023/07/21 06:26:59;;;;;;;17.13;4.30;;;20.00;99.90;;;;;;5095574;28;20200;-74
2023/07/21 06:29:26;;;;;;;7.93;4.43;;;20.30;99.90;;;;;;5095604;28;20200;-74
2023/07/21 06:31:53;;;;;;;9.35;3.90;;;20.50;99.90;;;;;;5095395;28;20281;-74
2023/07/21 06:34:22;;;;;;;6.78;4.30;;;20.70;99.90;;;;;;5095795;28;20200;-74
2023/07/21 06:36:50;;;;;;;8.20;4.35;;;20.80;99.90;;;;;;5095549;28;20277;-75
2023/07/21 06:39:17;;;;;;;10.63;4.18;;;21.10;99.90;;;;;;5095757;28;20680;-74
2023/07/21 06:41:44;;;;;;;6.07;3.88;;;21.30;99.90;;;;;;5095592;28;20208;-74
2023/07/21 06:44:10;;;;;;;6.60;4.07;;;21.30;99.90;;;;;;5095389;28;20199;-74
2023/07/21 06:46:37;;;;;;;8.70;3.70;;;21.30;99.90;;;;;;5095347;28;20204;-74
2023/07/21 06:49:04;;;;;;;8.25;2.88;;;21.40;99.90;;;;;;5095517;28;20254;-74
2023/07/21 06:51:30;;;;;;;6.18;3.30;;;21.50;99.90;;;;;;5095390;28;20197;-74
2023/07/21 06:53:58;;;;;;;6.55;3.00;;;21.60;99.90;;;;;;5095410;28;20196;-74
2023/07/21 06:56:25;;;;;;;5.85;2.85;;;21.50;99.90;;;;;;5094926;28;20232;-73
2023/07/21 06:58:51;;;;;;;3.10;2.63;;;21.70;99.90;;;;;;5081953;28;20201;-74
2023/07/21 07:01:18;;;;;;;5.03;2.90;;;22.00;99.90;;;;;;5074109;28;20582;-75
2023/07/21 07:03:45;;;;;;;4.53;2.50;;;21.90;99.90;;;;;;5074744;28;20201;-75
2023/07/21 07:06:11;;;;;;;4.75;3.40;;;22.10;99.90;;;;;;5073927;28;20649;-74
2023/07/21 07:08:38;;;;;;;6.00;2.83;;;22.30;99.90;;;;;;5074090;28;20243;-76
2023/07/21 07:11:06;;;;;;;6.72;2.90;;;22.40;98.60;;;;;;5074776;28;20263;-76
2023/07/21 07:13:33;;;;;;;4.65;2.70;;;22.50;98.10;;;;;;5074682;28;20575;-74
2023/07/21 07:15:59;;;;;;;3.28;2.55;;;22.40;97.80;;;;;;5068035;28;20226;-74
2023/07/21 07:18:26;;;;;;;10.07;2.50;;;22.20;96.90;;;;;;5053938;28;20229;-76
2023/07/21 07:20:53;;;;;;;2.88;2.40;;;21.90;96.30;;;;;;5054361;28;20202;-75
2023/07/21 07:23:21;;;;;;;4.70;2.80;;;21.80;95.60;;;;;;5054572;28;20205;-74
2023/07/21 07:25:48;;;;;;;3.80;2.70;;;22.00;95.00;;;;;;5054550;28;20244;-74
2023/07/21 07:28:17;;;;;;;2.75;2.42;;;22.10;94.30;;;;;;5054434;28;20598;-74
2023/07/21 07:30:44;;;;;;;3.65;2.55;;;22.30;93.70;;;;;;5054703;28;20201;-74
2023/07/21 07:33:11;;;;;;;4.80;2.75;;;22.00;93.60;;;;;;5054676;28;20761;-74
2023/07/21 07:35:41;;;;;;;9.00;2.95;;;21.80;93.90;;;;;;5053448;28;20202;-74
2023/07/21 07:38:07;;;;;;;2.83;2.45;;;22.20;94.30;;;;;;5054149;28;20276;-74
2023/07/21 07:40:34;;;;;;;5.40;2.50;;;22.40;93.50;;;;;;5054316;28;20198;-74
2023/07/21 07:43:01;;;;;;;4.00;2.58;;;22.60;93.30;;;;;;5054292;28;20198;-75
2023/07/21 07:45:29;;;;;;;4.53;2.42;;;22.90;92.90;;;;;;5054318;28;20201;-74
2023/07/21 07:47:56;;;;;;;5.60;2.72;;;22.60;92.30;;;;;;5054117;28;20549;-74
2023/07/21 07:50:22;;;;;;;6.65;2.65;;;22.70;92.60;;;;;;5054208;28;20236;-74
2023/07/21 07:52:49;;;;;;;6.35;2.50;;;22.60;92.20;;;;;;5053661;28;20197;-74
2023/07/21 07:55:16;;;;;;;4.55;2.85;;;23.00;92.30;;;;;;5054677;28;20202;-74
2023/07/21 07:57:42;;;;;;;7.35;2.78;;;23.10;90.80;;;;;;5076580;28;20228;-74
2023/07/21 08:00:10;;;;;;;4.38;2.58;;;23.10;90.60;;;;;;5074090;28;20201;-74
2023/07/21 08:02:39;;;;;;;6.97;2.60;;;23.40;90.10;;;;;;5085709;28;20196;-74
2023/07/21 08:05:07;;;;;;;2.92;2.60;;;23.10;90.60;;;;;;5094063;28;20246;-74
2023/07/21 08:07:33;;;;;;;4.75;2.50;;;23.60;90.80;;;;;;5093986;28;20273;-73
2023/07/21 08:10:02;;;;;;;5.05;2.72;;;23.70;89.60;;;;;;5093885;28;20192;-74
2023/07/21 08:12:28;;;;;;;3.00;2.70;;;23.40;88.80;;;;;;5094047;28;20202;-74
2023/07/21 08:14:55;;;;;;;5.40;2.55;;;23.20;88.60;;;;;;5094024;28;20230;-74
2023/07/21 08:17:21;;;;;;;2.90;2.60;;;23.00;90.00;;;;;;5094454;28;20266;-73
2023/07/21 08:19:49;;;;;;;4.90;2.75;;;22.90;89.20;;;;;;5093903;28;20237;-74
2023/07/21 08:22:16;;;;;;;6.38;2.50;;;22.60;90.10;;;;;;5093607;28;20269;-74
2023/07/21 08:24:42;;;;;;;3.17;2.50;;;23.30;89.60;;;;;;5094055;28;20201;-74
2023/07/21 08:27:09;;;;;;;2.92;2.25;;;23.30;87.00;;;;;;5093809;28;20204;-74
2023/07/21 08:29:37;;;;;;;5.18;2.70;;;23.50;86.40;;;;;;5093873;28;20198;-74
2023/07/21 08:32:04;;;;;;;4.03;2.70;;;23.40;86.20;;;;;;5093518;28;20257;-74
2023/07/21 08:34:31;;;;;;;4.82;2.45;;;23.70;86.10;;;;;;5093652;28;20207;-74
2023/07/21 08:36:59;;;;;;;2.50;2.30;;;23.50;83.80;;;;;;5093289;28;20197;-74
2023/07/21 08:39:25;;;;;;;4.25;2.38;;;24.00;82.00;;;;;;5093763;28;20200;-74
2023/07/21 08:41:53;;;;;;;5.65;2.83;;;24.30;80.10;;;;;;5093418;28;20551;-74
2023/07/21 08:44:22;;;;;;;2.60;2.35;;;24.20;79.30;;;;;;5093472;28;20192;-73
2023/07/21 08:46:49;;;;;;;4.03;2.53;;;23.80;79.40;;;;;;5093225;28;20220;-74
2023/07/21 08:49:17;;;;;;;5.32;2.38;;;23.80;79.40;;;;;;5093222;28;20253;-74
2023/07/21 08:51:44;;;;;;;4.68;2.65;;;24.30;78.70;;;;;;5093207;28;20567;-74
2023/07/21 08:54:13;;;;;;;3.45;2.70;;;24.10;79.10;;;;;;5093298;28;20200;-74
2023/07/21 08:56:40;;;;;;;3.30;2.58;;;23.80;79.10;;;;;;5093031;28;20639;-73
2023/07/21 08:59:07;;;;;;;5.07;2.75;;;23.40;80.20;;;;;;5093107;28;20220;-74
2023/07/21 09:01:33;;;;;;;4.13;2.90;;;23.10;81.70;;;;;;5093024;28;20659;-74
2023/07/21 09:04:00;;;;;;;3.35;2.70;;;23.10;81.90;;;;;;5092992;28;20246;-74
2023/07/21 09:06:27;;;;;;;5.22;2.92;;;23.40;83.00;;;;;;5093141;28;20192;-74
2023/07/21 09:08:54;;;;;;;3.70;2.70;;;23.20;82.30;;;;;;5093169;28;20216;-74
2023/07/21 09:11:26;;;;;;;5.50;2.83;;;23.00;81.90;;;;;;5093037;28;20287;-74
2023/07/21 09:13:55;;;;;;;8.80;2.95;;;23.10;82.40;;;;;;5092977;28;20200;-74
2023/07/21 09:16:21;;;;;;;3.33;2.50;;;22.90;82.20;;;;;;5092917;28;20200;-74
2023/07/21 09:18:51;;;;;;;5.30;2.33;;;22.90;81.40;;;;;;5093225;28;20231;-73
2023/07/21 09:21:20;;;;;;;4.50;2.65;;;23.00;81.70;;;;;;5093363;28;20196;-74
2023/07/21 09:23:46;;;;;;;3.45;2.35;;;23.00;81.50;;;;;;5093011;28;20199;-74
2023/07/21 09:26:16;;;;;;;3.65;2.40;;;23.10;79.90;;;;;;5093065;28;20204;-74
2023/07/21 09:28:45;;;;;;;3.67;1.92;;;23.00;78.70;;;;;;5092879;28;20196;-74
2023/07/21 09:31:13;;;;;;;6.70;2.67;;;22.80;77.40;;;;;;5092856;28;20203;-74
2023/07/21 09:33:42;;;;;;;3.33;2.25;;;22.90;78.30;;;;;;5093036;28;20200;-74
2023/07/21 09:36:10;;;;;;;3.25;2.53;;;23.10;78.90;;;;;;5093116;28;20635;-74
2023/07/21 09:38:37;;;;;;;4.45;2.50;;;23.00;79.50;;;;;;5092676;28;20667;-77
2023/07/21 09:41:05;;;;;;;3.30;2.63;;;23.30;78.00;;;;;;5092857;28;20287;-74
2023/07/21 09:43:33;;;;;;;3.22;2.20;;;23.60;76.00;;;;;;5092559;28;20602;-75
2023/07/21 09:46:02;;;;;;;4.20;2.22;;;23.80;75.60;;;;;;5093106;28;20591;-76
2023/07/21 09:48:29;;;;;;;2.97;2.42;;;24.10;76.00;;;;;;5092965;28;20196;-74
2023/07/21 09:50:59;;;;;;;3.63;2.47;;;24.60;75.00;;;;;;5092645;28;20196;-78
2023/07/21 09:53:31;;;;;;;6.38;2.30;;;25.00;72.40;;;;;;5092900;28;20192;-73
2023/07/21 09:56:01;;;;;;;4.20;2.55;;;25.60;71.40;;;;;;5103077;28;20197;-86
2023/07/21 09:58:30;;;;;;;4.57;2.30;;;25.70;68.20;;;;;;5106673;28;20593;-73
2023/07/21 10:01:03;;;;;;;4.25;2.17;;;25.30;67.10;;;;;;5097690;28;20198;-72
2023/07/21 10:03:31;;;;;;;3.83;2.25;;;25.40;68.00;;;;;;5096831;28;20567;-71
2023/07/21 10:05:59;;;;;;;3.13;2.45;;;25.50;65.80;;;;;;5096491;28;20196;-71
2023/07/21 10:08:27;;;;;;;3.45;2.30;;;24.80;67.30;;;;;;5096389;28;20200;-71
2023/07/21 10:10:56;;;;;;;4.03;2.15;;;24.50;67.10;;;;;;5096567;28;20200;-71
2023/07/21 10:13:26;;;;;;;4.18;2.22;;;24.80;68.60;;;;;;5096222;28;20197;-71
2023/07/21 10:15:53;;;;;;;3.25;2.20;;;24.50;68.30;;;;;;5096336;28;20560;-71
2023/07/21 10:18:21;;;;;;;2.72;2.22;;;25.00;67.90;;;;;;5095937;28;20306;-71
2023/07/21 10:20:49;;;;;;;4.70;2.40;;;24.60;68.10;;;;;;5096047;28;20200;-71
2023/07/21 10:23:18;;;;;;;4.25;2.63;;;24.60;68.40;;;;;;5095844;28;20196;-71
2023/07/21 10:25:54;;;;;;;2.72;2.40;;;24.80;68.80;;;;;;5096109;28;20204;-71
2023/07/21 10:28:24;;;;;;;4.80;2.50;;;25.10;68.40;;;;;;5095995;28;20196;-71
2023/07/21 10:30:52;;;;;;;4.63;2.53;;;25.60;66.80;;;;;;5095945;28;20199;-71
2023/07/21 10:33:21;;;;;;;3.22;2.60;;;26.00;65.40;;;;;;5095672;28;20200;-71
2023/07/21 10:35:48;;;;;;;6.68;2.45;;;25.90;63.30;;;;;;5095690;28;20204;-71
2023/07/21 10:38:24;;;;;;;7.60;2.78;;;26.00;61.30;;;;;;5095712;28;20228;-71
2023/07/21 10:40:51;;;;;;;6.22;2.47;;;26.00;61.90;;;;;;5095829;28;20203;-71
2023/07/21 10:43:17;;;;;;;2.80;2.30;;;26.20;61.10;;;;;;5095802;28;20200;-71
2023/07/21 10:45:53;;;;;;;3.70;2.53;;;26.40;60.00;;;;;;5095664;28;20250;-71
2023/07/21 10:48:25;;;;;;;3.70;2.25;;;26.80;59.60;;;;;;5095457;28;20247;-71
2023/07/21 10:50:56;;;;;;;3.97;2.28;;;27.10;59.30;;;;;;5095947;28;20197;-71
2023/07/21 10:53:23;;;;;;;2.60;2.20;;;27.80;57.70;;;;;;5095622;28;20197;-71
2023/07/21 10:55:51;;;;;;;3.42;2.53;;;27.20;57.70;;;;;;5095635;28;20234;-71
2023/07/21 10:58:18;;;;;;;2.45;2.25;;;27.60;56.90;;;;;;5095041;28;20232;-71
2023/07/21 11:00:49;;;;;;;4.45;2.35;;;27.70;55.60;;;;;;5095177;28;20208;-71
2023/07/21 11:03:16;;;;;;;5.68;2.50;;;28.80;55.20;;;;;;5095225;28;20675;-72
2023/07/21 11:05:44;;;;;;;3.47;2.38;;;29.50;53.60;;;;;;5095410;28;20208;-72
2023/07/21 11:08:12;;;;;;;3.60;2.53;;;29.40;51.40;;;;;;5095400;28;20200;-72
2023/07/21 11:10:39;;;;;;;2.90;2.60;;;29.40;50.80;;;;;;5094166;28;20197;-72
2023/07/21 11:13:06;;;;;;;2.72;2.47;;;28.10;52.10;;;;;;5095177;28;20200;-72
2023/07/21 11:15:33;;;;;;;4.03;2.50;;;28.30;51.70;;;;;;5095337;28;20222;-72
2023/07/21 11:18:03;;;;;;;3.28;2.33;;;29.60;50.40;;;;;;5095001;28;20196;-72
2023/07/21 11:20:30;;;;;;;3.17;2.20;;;29.30;49.20;;;;;;5095157;28;20257;-72
2023/07/21 11:22:58;;;;;;;3.15;2.10;;;31.80;47.80;;;;;;5095047;28;20192;-72
2023/07/21 11:25:25;;;;;;;3.33;2.20;;;30.80;45.00;;;;;;5094763;28;20663;-72
2023/07/21 11:27:52;;;;;;;6.15;2.45;;;29.70;46.30;;;;;;5094808;28;20261;-72
2023/07/21 11:30:19;;;;;;;3.53;2.35;;;29.30;45.80;;;;;;5095054;28;20234;-72
2023/07/21 11:32:46;;;;;;;5.20;2.70;;;28.20;47.10;;;;;;5094846;28;20200;-72
2023/07/21 11:35:13;;;;;;;11.77;2.58;;;26.80;48.80;;;;;;5094728;28;20196;-72
2023/07/21 11:37:42;;;;;;;3.10;2.70;;;26.50;49.30;;;;;;5094547;28;20218;-72
2023/07/21 11:40:14;;;;;;;3.45;2.60;;;26.00;49.60;;;;;;5094297;28;20224;-72
2023/07/21 11:42:46;;;;;;;3.60;2.53;;;26.00;49.30;;;;;;5095037;28;20203;-71
2023/07/21 11:45:32;;;;;;;2.50;2.30;;;25.90;49.50;;;;;;5094499;28;20196;-71
2023/07/21 11:47:59;;;;;;;3.50;2.47;;;25.30;50.30;;;;;;5094308;28;20198;-71
2023/07/21 11:50:28;;;;;;;3.85;2.28;;;25.10;50.90;;;;;;5094286;28;20192;-71
2023/07/21 11:52:55;;;;;;;4.53;2.75;;;25.10;50.90;;;;;;5094098;28;20542;-70
2023/07/21 11:55:23;;;;;;;3.97;2.70;;;24.50;51.60;;;;;;5094115;28;20652;-72
2023/07/21 11:57:51;;;;;;;5.68;2.60;;;25.10;51.50;;;;;;5094075;28;20231;-72
2023/07/21 12:00:19;;;;;;;2.70;2.50;;;25.00;51.20;;;;;;5094099;28;20232;-72
2023/07/21 12:02:46;;;;;;;5.38;2.38;;;25.00;51.90;;;;;;5093957;28;20210;-72
2023/07/21 12:05:13;;;;;;;3.80;2.42;;;25.10;51.80;;;;;;5093868;28;20700;-72
2023/07/21 12:07:42;;;;;;;2.60;2.20;;;25.60;51.60;;;;;;5079219;28;20201;-73
2023/07/21 12:10:10;;;;;;;4.72;2.60;;;25.70;50.70;;;;;;5073796;28;20248;-73
2023/07/21 12:12:38;;;;;;;4.45;2.40;;;25.80;51.00;;;;;;5073368;28;20207;-73
2023/07/21 12:15:06;;;;;;;3.55;2.50;;;26.10;50.00;;;;;;5073373;28;20288;-73
2023/07/21 12:17:33;;;;;;;2.78;2.58;;;25.40;50.20;;;;;;5073471;28;20209;-73
2023/07/21 12:20:00;;;;;;;2.33;2.13;;;25.40;50.00;;;;;;5072987;28;20221;-73
2023/07/21 12:22:27;;;;;;;2.40;2.20;;;26.70;49.50;;;;;;5073564;28;20199;-73
2023/07/21 12:24:53;;;;;;;4.28;2.40;;;27.10;47.70;;;;;;5073472;28;20197;-73
2023/07/21 12:27:20;;;;;;;4.05;2.35;;;27.30;47.30;;;;;;5073515;28;20193;-73
2023/07/21 12:29:48;;;;;;;2.67;2.10;;;28.50;46.40;;;;;;5073415;28;20193;-72
2023/07/21 12:32:14;;;;;;;3.28;2.13;;;29.60;45.10;;;;;;5073046;28;20193;-73
2023/07/21 12:34:41;;;;;;;2.60;1.95;;;30.90;42.50;;;;;;5073541;28;20254;-73
2023/07/21 12:37:08;;;;;;;2.42;2.22;;;31.40;41.00;;;;;;5073196;28;20554;-73
2023/07/21 12:39:35;;;;;;;4.13;2.45;;;30.80;39.90;;;;;;5073140;28;20228;-72
2023/07/21 12:42:02;;;;;;;3.17;2.13;;;28.90;41.40;;;;;;5073217;28;20197;-73
2023/07/21 12:44:28;;;;;;;2.47;2.13;;;28.20;42.50;;;;;;5073152;28;20219;-72
2023/07/21 12:46:56;;;;;;;2.88;2.00;;;26.80;43.00;;;;;;5072982;28;20247;-72